createdAt,value
2017-10-16T00:00:41.687Z,12.41
2017-10-16T00:01:41.679Z,12.39
2017-10-16T00:02:41.665Z,12.47
2017-10-16T00:03:41.657Z,12.42
2017-10-16T00:04:41.658Z,12.23
2017-10-16T00:05:41.649Z,12.27
2017-10-16T00:06:41.637Z,12.27
2017-10-16T00:07:41.297Z,12.35
2017-10-16T00:08:41.624Z,12.24
2017-10-16T00:09:41.612Z,12.29
2017-10-16T00:10:41.603Z,12.29
2017-10-16T00:11:41.264Z,12.19
2017-10-16T00:12:41.598Z,12.12
2017-10-16T00:13:41.580Z,12.27
2017-10-16T00:14:41.243Z,12.19
2017-10-16T00:15:41.567Z,12.19
2017-10-16T00:16:41.806Z,12.21
2017-10-16T00:17:41.554Z,12.14
2017-10-16T00:18:41.583Z,12.17
2017-10-16T00:19:41.201Z,12.16
2017-10-16T00:20:41.524Z,12.16
2017-10-16T00:21:41.517Z,12.05
2017-10-16T00:22:41.512Z,12.09
2017-10-16T00:23:41.503Z,12.05
2017-10-16T00:24:41.495Z,12.02
2017-10-16T00:25:40.822Z,12.2
2017-10-16T00:26:41.481Z,12.07
2017-10-16T00:27:41.470Z,12.04
2017-10-16T00:28:41.463Z,12.07
2017-10-16T00:29:41.461Z,12.07
2017-10-16T00:30:41.115Z,11.99
2017-10-16T00:31:41.442Z,12.05
2017-10-16T00:32:41.435Z,12.01
2017-10-16T00:33:41.099Z,12.01
2017-10-16T00:34:41.416Z,11.96
2017-10-16T00:35:41.076Z,11.99
2017-10-16T00:36:41.066Z,11.94
2017-10-16T00:37:41.395Z,11.91
2017-10-16T00:38:41.383Z,11.91
2017-10-16T00:39:41.377Z,11.9
2017-10-16T00:40:41.036Z,11.85
2017-10-16T00:41:41.360Z,11.78
2017-10-16T00:42:41.353Z,11.78
2017-10-16T00:43:41.341Z,11.85
2017-10-16T00:44:41.334Z,11.82
2017-10-16T00:45:40.993Z,11.8
2017-10-16T00:46:41.320Z,11.83
2017-10-16T00:47:41.571Z,11.82
2017-10-16T00:48:41.314Z,11.73
2017-10-16T00:49:41.295Z,11.69
2017-10-16T00:50:41.287Z,11.65
2017-10-16T00:51:40.946Z,11.69
2017-10-16T00:52:41.274Z,11.7
2017-10-16T00:53:41.261Z,11.65
2017-10-16T00:54:41.258Z,11.69
2017-10-16T00:55:41.259Z,11.75
2017-10-16T00:56:41.233Z,11.72
2017-10-16T00:57:41.232Z,11.67
2017-10-16T00:58:40.891Z,11.52
2017-10-16T00:59:41.221Z,11.64
2017-10-16T01:00:41.212Z,11.52
2017-10-16T01:01:41.196Z,11.58
2017-10-16T01:02:41.188Z,11.62
2017-10-16T01:03:41.180Z,11.58
2017-10-16T01:04:41.174Z,11.54
2017-10-16T01:05:41.166Z,11.49
2017-10-16T01:06:41.158Z,11.54
2017-10-16T01:07:41.142Z,11.57
2017-10-16T01:08:41.149Z,11.49
2017-10-16T01:09:41.141Z,11.54
2017-10-16T01:10:41.122Z,11.49
2017-10-16T01:11:41.120Z,11.51
2017-10-16T01:12:41.108Z,11.52
2017-10-16T01:13:41.405Z,11.51
2017-10-16T01:14:41.126Z,11.51
2017-10-16T01:15:41.089Z,11.49
2017-10-16T01:16:41.072Z,11.46
2017-10-16T01:17:41.067Z,11.4
2017-10-16T01:18:41.062Z,11.47
2017-10-16T01:19:41.055Z,11.36
2017-10-16T01:20:40.710Z,11.39
2017-10-16T01:21:41.031Z,11.39
2017-10-16T01:22:40.692Z,11.4
2017-10-16T01:23:41.024Z,11.39
2017-10-16T01:24:41.007Z,11.39
2017-10-16T01:25:40.998Z,11.4
2017-10-16T01:26:40.655Z,11.4
2017-10-16T01:27:40.986Z,11.36
2017-10-16T01:28:40.975Z,11.33
2017-10-16T01:29:40.642Z,11.27
2017-10-16T01:30:40.962Z,11.27
2017-10-16T01:31:40.953Z,11.24
2017-10-16T01:32:40.938Z,11.24
2017-10-16T01:33:40.600Z,11.18
2017-10-16T01:34:40.950Z,11.39
2017-10-16T01:35:40.914Z,11.29
2017-10-16T01:36:40.573Z,11.32
2017-10-16T01:37:40.900Z,11.25
2017-10-16T01:38:40.557Z,11.28
2017-10-16T01:39:40.877Z,11.28
2017-10-16T01:40:40.538Z,11.35
2017-10-16T01:41:40.873Z,11.24
2017-10-16T01:42:40.859Z,11.27
2017-10-16T01:43:40.522Z,11.24
2017-10-16T01:44:40.839Z,11.24
2017-10-16T01:45:40.828Z,11.27
2017-10-16T01:46:40.493Z,11.27
2017-10-16T01:47:40.816Z,11.22
2017-10-16T01:48:40.804Z,11.19
2017-10-16T01:49:40.810Z,11.22
2017-10-16T01:50:40.794Z,11.22
2017-10-16T01:51:40.781Z,11.27
2017-10-16T01:52:40.783Z,11.18
2017-10-16T01:53:40.763Z,11.21
2017-10-16T01:54:40.755Z,11.18
2017-10-16T01:55:40.742Z,11.17
2017-10-16T01:56:40.740Z,11.21
2017-10-16T01:57:40.728Z,11.25
2017-10-16T01:58:40.388Z,11.19
2017-10-16T01:59:40.714Z,11.04
2017-10-16T02:00:40.703Z,11.11
2017-10-16T02:01:40.693Z,11.09
2017-10-16T02:02:40.685Z,11.06
2017-10-16T02:03:40.673Z,11.09
2017-10-16T02:04:40.668Z,11.1
2017-10-16T02:05:40.658Z,11.09
2017-10-16T02:06:40.651Z,11.11
2017-10-16T02:07:40.639Z,11.07
2017-10-16T02:08:40.639Z,11.07
2017-10-16T02:09:40.623Z,11.15
2017-10-16T02:10:40.619Z,11.03
2017-10-16T02:11:40.607Z,11.02
2017-10-16T02:12:40.604Z,10.97
2017-10-16T02:13:40.596Z,11.04
2017-10-16T02:14:40.583Z,10.99
2017-10-16T02:15:40.573Z,10.97
2017-10-16T02:16:40.564Z,11
2017-10-16T02:17:40.557Z,10.99
2017-10-16T02:18:40.216Z,10.97
2017-10-16T02:19:40.541Z,10.96
2017-10-16T02:20:40.199Z,11.02
2017-10-16T02:21:40.779Z,11
2017-10-16T02:22:40.513Z,10.84
2017-10-16T02:23:40.504Z,11
2017-10-16T02:24:40.494Z,10.88
2017-10-16T02:25:40.485Z,10.88
2017-10-16T02:26:40.479Z,10.91
2017-10-16T02:27:40.469Z,10.91
2017-10-16T02:28:40.489Z,10.86
2017-10-16T02:29:40.462Z,10.82
2017-10-16T02:30:40.448Z,10.85
2017-10-16T02:31:40.101Z,10.85
2017-10-16T02:32:40.429Z,10.85
2017-10-16T02:33:40.455Z,10.85
2017-10-16T02:34:40.407Z,10.85
2017-10-16T02:35:40.412Z,10.84
2017-10-16T02:36:40.394Z,10.81
2017-10-16T02:37:40.054Z,10.91
2017-10-16T02:38:40.387Z,10.84
2017-10-16T02:39:40.369Z,10.88
2017-10-16T02:40:40.367Z,10.85
2017-10-16T02:41:40.353Z,10.78
2017-10-16T02:42:40.346Z,10.7
2017-10-16T02:43:40.339Z,10.74
2017-10-16T02:44:40.323Z,10.74
2017-10-16T02:45:40.326Z,10.71
2017-10-16T02:46:40.308Z,10.7
2017-10-16T02:47:39.970Z,10.71
2017-10-16T02:48:40.303Z,10.78
2017-10-16T02:49:40.284Z,10.78
2017-10-16T02:50:40.277Z,10.76
2017-10-16T02:51:40.260Z,10.81
2017-10-16T02:52:40.500Z,10.79
2017-10-16T02:53:40.247Z,10.7
2017-10-16T02:54:40.234Z,10.7
2017-10-16T02:55:40.229Z,10.74
2017-10-16T02:56:40.222Z,10.74
2017-10-16T02:57:40.208Z,10.66
2017-10-16T02:58:40.199Z,10.67
2017-10-16T02:59:40.189Z,10.7
2017-10-16T03:00:40.178Z,10.59
2017-10-16T03:01:40.170Z,10.53
2017-10-16T03:02:40.190Z,10.6
2017-10-16T03:03:40.151Z,10.67
2017-10-16T03:04:40.141Z,10.53
2017-10-16T03:05:39.808Z,10.52
2017-10-16T03:06:40.126Z,10.59
2017-10-16T03:07:40.126Z,10.59
2017-10-16T03:08:40.113Z,10.55
2017-10-16T03:09:40.100Z,10.59
2017-10-16T03:10:40.091Z,10.48
2017-10-16T03:11:40.084Z,10.52
2017-10-16T03:12:40.074Z,10.52
2017-10-16T03:13:40.065Z,10.6
2017-10-16T03:14:40.061Z,10.6
2017-10-16T03:15:40.048Z,10.47
2017-10-16T03:16:40.037Z,10.45
2017-10-16T03:17:40.043Z,10.41
2017-10-16T03:18:40.029Z,10.55
2017-10-16T03:19:39.681Z,10.45
2017-10-16T03:20:40.003Z,10.47
2017-10-16T03:21:39.997Z,10.45
2017-10-16T03:22:39.988Z,10.48
2017-10-16T03:23:40.227Z,10.47
2017-10-16T03:24:40.008Z,10.45
2017-10-16T03:25:39.626Z,10.47
2017-10-16T03:26:39.620Z,10.4
2017-10-16T03:27:39.943Z,10.38
2017-10-16T03:28:39.699Z,10.47
2017-10-16T03:29:39.922Z,10.44
2017-10-16T03:30:39.916Z,10.36
2017-10-16T03:31:39.582Z,10.45
2017-10-16T03:32:39.900Z,10.42
2017-10-16T03:33:39.895Z,10.36
2017-10-16T03:34:39.548Z,10.33
2017-10-16T03:35:39.871Z,10.34
2017-10-16T03:36:39.524Z,10.34
2017-10-16T03:37:39.854Z,10.36
2017-10-16T03:38:39.840Z,10.38
2017-10-16T03:39:39.502Z,10.4
2017-10-16T03:40:39.823Z,10.32
2017-10-16T03:41:39.813Z,10.32
2017-10-16T03:42:39.810Z,10.34
2017-10-16T03:43:39.801Z,10.33
2017-10-16T03:44:39.456Z,10.27
2017-10-16T03:45:39.776Z,10.26
2017-10-16T03:46:39.769Z,10.25
2017-10-16T03:47:39.765Z,10.27
2017-10-16T03:48:39.750Z,10.4
2017-10-16T03:49:39.743Z,10.32
2017-10-16T03:50:39.735Z,10.34
2017-10-16T03:51:39.720Z,10.34
2017-10-16T03:52:39.721Z,10.34
2017-10-16T03:53:39.712Z,10.23
2017-10-16T03:54:39.951Z,10.17
2017-10-16T03:55:39.686Z,10.25
2017-10-16T03:56:39.680Z,10.22
2017-10-16T03:57:39.671Z,10.29
2017-10-16T03:58:39.661Z,10.26
2017-10-16T03:59:39.651Z,10.22
2017-10-16T04:00:39.646Z,10.25
2017-10-16T04:01:39.635Z,10.26
2017-10-16T04:02:38.959Z,10.22
2017-10-16T04:03:39.615Z,10.2
2017-10-16T04:04:39.269Z,10.18
2017-10-16T04:05:39.596Z,10.18
2017-10-16T04:06:39.595Z,10.22
2017-10-16T04:07:39.253Z,10.25
2017-10-16T04:08:39.568Z,10.22
2017-10-16T04:09:39.230Z,10.27
2017-10-16T04:10:39.550Z,10.32
2017-10-16T04:11:39.547Z,10.25
2017-10-16T04:12:39.542Z,10.34
2017-10-16T04:13:39.529Z,10.29
2017-10-16T04:14:39.516Z,10.32
2017-10-16T04:15:39.169Z,10.33
2017-10-16T04:16:39.497Z,10.29
2017-10-16T04:17:39.485Z,10.32
2017-10-16T04:18:39.153Z,10.36
2017-10-16T04:19:39.474Z,10.26
2017-10-16T04:20:39.464Z,10.3
2017-10-16T04:21:39.447Z,10.29
2017-10-16T04:22:39.436Z,10.32
2017-10-16T04:23:39.439Z,10.32
2017-10-16T04:24:39.421Z,10.33
2017-10-16T04:25:39.667Z,10.36
2017-10-16T04:26:39.409Z,10.32
2017-10-16T04:27:39.399Z,10.34
2017-10-16T04:28:39.384Z,10.34
2017-10-16T04:29:39.376Z,10.42
2017-10-16T04:30:39.036Z,10.4
2017-10-16T04:31:39.372Z,10.42
2017-10-16T04:32:39.022Z,10.44
2017-10-16T04:33:39.338Z,10.48
2017-10-16T04:34:39.329Z,10.47
2017-10-16T04:35:39.324Z,10.47
2017-10-16T04:36:39.313Z,10.44
2017-10-16T04:37:39.300Z,10.51
2017-10-16T04:38:38.964Z,10.45
2017-10-16T04:39:39.284Z,10.55
2017-10-16T04:40:39.271Z,10.53
2017-10-16T04:41:39.268Z,10.53
2017-10-16T04:42:39.257Z,10.66
2017-10-16T04:43:39.248Z,10.61
2017-10-16T04:44:39.239Z,10.71
2017-10-16T04:45:39.233Z,10.71
2017-10-16T04:46:39.226Z,10.78
2017-10-16T04:47:38.880Z,10.73
2017-10-16T04:48:39.204Z,10.78
2017-10-16T04:49:39.198Z,10.7
2017-10-16T04:50:39.193Z,10.74
2017-10-16T04:51:39.173Z,10.7
2017-10-16T04:52:39.171Z,10.78
2017-10-16T04:53:39.161Z,10.82
2017-10-16T04:54:39.158Z,10.79
2017-10-16T04:55:39.144Z,10.78
2017-10-16T04:56:39.133Z,10.79
2017-10-16T04:57:39.132Z,10.85
2017-10-16T04:58:39.118Z,10.89
2017-10-16T04:59:39.107Z,10.92
2017-10-16T05:00:39.110Z,10.86
2017-10-16T05:01:39.097Z,10.94
2017-10-16T05:02:38.748Z,10.92
2017-10-16T05:03:39.068Z,10.86
2017-10-16T05:04:38.728Z,10.92
2017-10-16T05:05:38.722Z,10.94
2017-10-16T05:06:39.044Z,10.88
2017-10-16T05:07:39.038Z,10.92
2017-10-16T05:08:38.692Z,10.92
2017-10-16T05:09:39.218Z,10.99
2017-10-16T05:10:38.674Z,11.02
2017-10-16T05:11:38.994Z,11.04
2017-10-16T05:12:38.988Z,11.04
2017-10-16T05:13:38.986Z,11.14
2017-10-16T05:14:38.974Z,11.1
2017-10-16T05:15:38.968Z,11.1
2017-10-16T05:16:38.625Z,11.11
2017-10-16T05:17:38.946Z,11.11
2017-10-16T05:18:38.934Z,11.1
2017-10-16T05:19:38.930Z,11.07
2017-10-16T05:20:38.926Z,11.09
2017-10-16T05:21:38.581Z,11.1
2017-10-16T05:22:38.941Z,11.06
2017-10-16T05:23:38.563Z,11.19
2017-10-16T05:24:38.892Z,11.19
2017-10-16T05:25:38.878Z,11.22
2017-10-16T05:26:38.865Z,11.25
2017-10-16T05:27:38.201Z,11.22
2017-10-16T05:28:38.520Z,11.24
2017-10-16T05:29:38.518Z,11.28
2017-10-16T05:30:38.501Z,11.24
2017-10-16T05:31:38.492Z,11.32
2017-10-16T05:32:38.816Z,11.32
2017-10-16T05:33:38.804Z,11.19
2017-10-16T05:34:38.805Z,11.24
2017-10-16T05:35:38.790Z,11.29
2017-10-16T05:36:38.448Z,11.24
2017-10-16T05:37:38.775Z,11.25
2017-10-16T05:38:38.764Z,11.28
2017-10-16T05:39:38.424Z,11.28
2017-10-16T05:40:38.751Z,11.35
2017-10-16T05:41:38.736Z,11.42
2017-10-16T05:42:38.738Z,11.39
2017-10-16T05:43:39.029Z,11.37
2017-10-16T05:44:38.711Z,11.44
2017-10-16T05:45:38.375Z,11.46
2017-10-16T05:46:38.697Z,11.49
2017-10-16T05:47:38.689Z,11.49
2017-10-16T05:48:38.679Z,11.49
2017-10-16T05:49:38.335Z,11.49
2017-10-16T05:50:38.677Z,11.46
2017-10-16T05:51:38.655Z,11.6
2017-10-16T05:52:38.336Z,11.57
2017-10-16T05:53:38.652Z,11.55
2017-10-16T05:54:38.627Z,11.57
2017-10-16T05:55:38.625Z,11.57
2017-10-16T05:56:38.607Z,11.58
2017-10-16T05:57:38.601Z,11.64
2017-10-16T05:58:38.263Z,11.67
2017-10-16T05:59:38.837Z,11.69
2017-10-16T06:00:38.577Z,11.73
2017-10-16T06:01:38.568Z,11.75
2017-10-16T06:02:38.564Z,11.65
2017-10-16T06:03:38.551Z,11.79
2017-10-16T06:04:38.545Z,11.78
2017-10-16T06:05:38.206Z,11.79
2017-10-16T06:06:38.204Z,11.91
2017-10-16T06:07:38.528Z,11.95
2017-10-16T06:08:38.511Z,12.04
2017-10-16T06:09:38.503Z,12.14
2017-10-16T06:10:38.492Z,12.19
2017-10-16T06:11:38.487Z,12.28
2017-10-16T06:12:38.481Z,12.42
2017-10-16T06:13:38.473Z,12.49
2017-10-16T06:14:38.470Z,12.64
2017-10-16T06:15:38.462Z,12.71
2017-10-16T06:16:38.453Z,12.78
2017-10-16T06:17:38.443Z,12.96
2017-10-16T06:18:38.434Z,13.03
2017-10-16T06:19:38.435Z,13.12
2017-10-16T06:20:38.087Z,13.2
2017-10-16T06:21:38.422Z,13.33
2017-10-16T06:22:38.409Z,13.42
2017-10-16T06:23:38.404Z,13.59
2017-10-16T06:24:38.392Z,13.6
2017-10-16T06:25:38.385Z,13.81
2017-10-16T06:26:38.380Z,13.88
2017-10-16T06:27:38.380Z,14.03
2017-10-16T06:28:38.031Z,14.15
2017-10-16T06:29:38.026Z,14.2
2017-10-16T06:30:38.616Z,14.35
2017-10-16T06:31:38.349Z,14.35
2017-10-16T06:32:38.343Z,14.52
2017-10-16T06:33:38.335Z,14.65
2017-10-16T06:34:38.335Z,14.62
2017-10-16T06:35:37.992Z,14.69
2017-10-16T06:36:38.324Z,14.84
2017-10-16T06:37:37.982Z,14.92
2017-10-16T06:38:37.976Z,15.06
2017-10-16T06:39:38.308Z,15.13
2017-10-16T06:40:38.297Z,15.19
2017-10-16T06:41:38.296Z,15.27
2017-10-16T06:42:38.292Z,15.46
2017-10-16T06:43:38.294Z,15.49
2017-10-16T06:44:38.282Z,15.44
2017-10-16T06:45:38.277Z,15.56
2017-10-16T06:46:38.271Z,15.56
2017-10-16T06:47:38.275Z,15.54
2017-10-16T06:48:38.267Z,15.62
2017-10-16T06:49:38.254Z,15.68
2017-10-16T06:50:38.259Z,15.67
2017-10-16T06:51:38.248Z,15.76
2017-10-16T06:52:38.242Z,15.84
2017-10-16T06:53:38.243Z,15.78
2017-10-16T06:54:38.236Z,15.78
2017-10-16T06:55:38.232Z,15.86
2017-10-16T06:56:38.230Z,15.86
2017-10-16T06:57:38.231Z,15.92
2017-10-16T06:58:38.224Z,15.96
2017-10-16T06:59:38.214Z,15.96
2017-10-16T07:00:37.881Z,16.11
2017-10-16T07:01:38.127Z,16.21
2017-10-16T07:02:38.207Z,16.12
2017-10-16T07:03:38.206Z,16.17
2017-10-16T07:04:38.203Z,16.2
2017-10-16T07:05:38.197Z,16.21
2017-10-16T07:06:38.198Z,16.21
2017-10-16T07:07:38.190Z,16.24
2017-10-16T07:08:38.188Z,16.21
2017-10-16T07:09:38.180Z,16.28
2017-10-16T07:10:38.182Z,16.35
2017-10-16T07:11:38.175Z,16.35
2017-10-16T07:12:37.839Z,16.33
2017-10-16T07:13:38.168Z,16.39
2017-10-16T07:14:38.164Z,16.38
2017-10-16T07:15:38.167Z,16.34
2017-10-16T07:16:38.155Z,16.33
2017-10-16T07:17:37.820Z,16.34
2017-10-16T07:18:38.161Z,16.38
2017-10-16T07:19:37.817Z,16.38
2017-10-16T07:20:37.815Z,16.34
2017-10-16T07:21:38.142Z,16.3
2017-10-16T07:22:38.138Z,16.35
2017-10-16T07:23:38.137Z,16.35
2017-10-16T07:24:38.135Z,16.33
2017-10-16T07:25:37.795Z,16.27
2017-10-16T07:26:38.135Z,16.24
2017-10-16T07:27:38.127Z,16.25
2017-10-16T07:28:38.122Z,16.3
2017-10-16T07:29:38.126Z,16.27
2017-10-16T07:30:38.120Z,16.3
2017-10-16T07:31:37.791Z,16.24
2017-10-16T07:32:38.365Z,16.24
2017-10-16T07:33:38.104Z,16.21
2017-10-16T07:34:38.105Z,16.23
2017-10-16T07:35:38.104Z,16.11
2017-10-16T07:36:37.767Z,16.14
2017-10-16T07:37:38.093Z,16.02
2017-10-16T07:38:37.759Z,16.04
2017-10-16T07:39:38.092Z,15.97
2017-10-16T07:40:38.097Z,16.05
2017-10-16T07:41:38.081Z,15.97
2017-10-16T07:42:38.076Z,15.94
2017-10-16T07:43:38.106Z,15.9
2017-10-16T07:44:37.962Z,15.84
2017-10-16T07:45:38.060Z,15.89
2017-10-16T07:46:38.058Z,15.78
2017-10-16T07:47:38.256Z,15.76
2017-10-16T07:48:38.053Z,15.8
2017-10-16T07:49:37.717Z,15.78
2017-10-16T07:50:38.046Z,15.68
2017-10-16T07:51:38.039Z,15.71
2017-10-16T07:52:37.373Z,15.64
2017-10-16T07:53:38.043Z,15.69
2017-10-16T07:54:38.040Z,15.59
2017-10-16T07:55:38.022Z,15.67
2017-10-16T07:56:37.685Z,15.62
2017-10-16T07:57:38.229Z,15.51
2017-10-16T07:58:38.026Z,15.59
2017-10-16T07:59:37.673Z,15.56
2017-10-16T08:00:38.002Z,15.56
2017-10-16T08:01:37.660Z,15.54
2017-10-16T08:02:37.990Z,15.56
2017-10-16T08:03:38.236Z,15.53
2017-10-16T08:04:37.978Z,15.6
2017-10-16T08:05:37.970Z,15.59
2017-10-16T08:06:37.972Z,15.57
2017-10-16T08:07:37.968Z,15.54
2017-10-16T08:08:37.623Z,15.57
2017-10-16T08:09:37.953Z,15.59
2017-10-16T08:10:37.945Z,15.68
2017-10-16T08:11:37.614Z,15.67
2017-10-16T08:12:37.951Z,15.69
2017-10-16T08:13:37.930Z,15.67
2017-10-16T08:14:37.597Z,15.64
2017-10-16T08:15:37.925Z,15.65
2017-10-16T08:16:37.923Z,15.62
2017-10-16T08:17:37.584Z,15.67
2017-10-16T08:18:37.574Z,15.71
2017-10-16T08:19:37.567Z,15.72
2017-10-16T08:20:37.896Z,15.75
2017-10-16T08:21:37.894Z,15.78
2017-10-16T08:22:37.891Z,15.8
2017-10-16T08:23:37.880Z,15.86
2017-10-16T08:24:37.879Z,15.87
2017-10-16T08:25:37.878Z,15.86
2017-10-16T08:26:37.867Z,15.87
2017-10-16T08:27:37.870Z,15.92
2017-10-16T08:28:37.522Z,16
2017-10-16T08:29:37.517Z,16.02
2017-10-16T08:30:37.845Z,16.07
2017-10-16T08:31:37.843Z,16.07
2017-10-16T08:32:37.515Z,15.96
2017-10-16T08:33:37.861Z,15.97
2017-10-16T08:34:37.494Z,16.11
2017-10-16T08:35:38.023Z,16.12
2017-10-16T08:36:37.487Z,16.21
2017-10-16T08:37:37.812Z,16.08
2017-10-16T08:38:37.805Z,16.23
2017-10-16T08:39:37.999Z,16.23
2017-10-16T08:40:37.802Z,16.2
2017-10-16T08:41:37.457Z,16.23
2017-10-16T08:42:37.124Z,16.28
2017-10-16T08:43:37.784Z,16.21
2017-10-16T08:44:37.773Z,16.24
2017-10-16T08:45:37.777Z,16.35
2017-10-16T08:46:37.769Z,16.33
2017-10-16T08:47:37.428Z,16.31
2017-10-16T08:48:37.759Z,16.31
2017-10-16T08:49:37.755Z,16.49
2017-10-16T08:50:37.416Z,16.49
2017-10-16T08:51:37.739Z,16.53
2017-10-16T08:52:37.736Z,16.57
2017-10-16T08:53:37.848Z,16.56
2017-10-16T08:54:37.399Z,16.61
2017-10-16T08:55:37.759Z,16.68
2017-10-16T08:56:37.715Z,16.67
2017-10-16T08:57:37.383Z,16.73
2017-10-16T08:58:37.373Z,16.73
2017-10-16T08:59:37.707Z,16.76
2017-10-16T09:00:37.713Z,16.76
2017-10-16T09:01:37.914Z,16.81
2017-10-16T09:02:37.689Z,16.79
2017-10-16T09:03:37.354Z,16.81
2017-10-16T09:04:37.347Z,16.86
2017-10-16T09:05:37.677Z,16.93
2017-10-16T09:06:37.673Z,16.96
2017-10-16T09:07:37.669Z,16.96
2017-10-16T09:08:37.579Z,17
2017-10-16T09:09:37.654Z,17.08
2017-10-16T09:10:37.651Z,17.06
2017-10-16T09:11:37.317Z,17.15
2017-10-16T09:12:38.028Z,17.18
2017-10-16T09:13:37.306Z,17.14
2017-10-16T09:14:37.631Z,17.12
2017-10-16T09:15:37.295Z,17.21
2017-10-16T09:16:37.499Z,17.25
2017-10-16T09:17:36.958Z,17.23
2017-10-16T09:18:37.284Z,17.22
2017-10-16T09:19:37.289Z,17.36
2017-10-16T09:20:38.285Z,17.26
2017-10-16T09:21:37.271Z,17.38
2017-10-16T09:22:37.601Z,17.41
2017-10-16T09:23:37.596Z,17.4
2017-10-16T09:24:37.257Z,17.52
2017-10-16T09:25:37.258Z,17.46
2017-10-16T09:26:37.577Z,17.56
2017-10-16T09:27:37.248Z,17.59
2017-10-16T09:28:37.584Z,17.56
2017-10-16T09:29:37.569Z,17.64
2017-10-16T09:30:37.230Z,17.63
2017-10-16T09:31:37.224Z,17.7
2017-10-16T09:32:37.552Z,17.72
2017-10-16T09:33:37.220Z,17.75
2017-10-16T09:34:37.558Z,17.79
2017-10-16T09:35:37.544Z,17.89
2017-10-16T09:36:37.537Z,17.86
2017-10-16T09:37:37.203Z,18.02
2017-10-16T09:38:37.529Z,17.89
2017-10-16T09:39:37.191Z,18.02
2017-10-16T09:40:37.189Z,17.99
2017-10-16T09:41:36.891Z,18.1
2017-10-16T09:42:37.514Z,18.07
2017-10-16T09:43:37.176Z,18.17
2017-10-16T09:44:37.174Z,18.17
2017-10-16T09:45:37.503Z,18.2
2017-10-16T09:46:37.726Z,18.23
2017-10-16T09:47:37.493Z,18.26
2017-10-16T09:48:37.915Z,18.23
2017-10-16T09:49:37.486Z,18.27
2017-10-16T09:50:37.480Z,18.33
2017-10-16T09:51:37.484Z,18.32
2017-10-16T09:52:37.144Z,18.32
2017-10-16T09:53:37.475Z,18.45
2017-10-16T09:54:37.133Z,18.47
2017-10-16T09:55:37.468Z,18.52
2017-10-16T09:56:37.467Z,18.47
2017-10-16T09:57:37.453Z,18.5
2017-10-16T09:58:37.460Z,18.55
2017-10-16T09:59:37.451Z,18.55
2017-10-16T10:00:37.438Z,18.65
2017-10-16T10:01:37.443Z,18.69
2017-10-16T10:02:37.437Z,18.72
2017-10-16T10:03:37.435Z,18.8
2017-10-16T10:04:37.428Z,18.82
2017-10-16T10:05:37.101Z,18.9
2017-10-16T10:06:37.432Z,18.94
2017-10-16T10:07:37.423Z,18.94
2017-10-16T10:08:37.417Z,18.95
2017-10-16T10:09:37.413Z,19.07
2017-10-16T10:10:37.410Z,19.06
2017-10-16T10:11:37.402Z,19.1
2017-10-16T10:12:37.067Z,19.13
2017-10-16T10:13:37.316Z,19.19
2017-10-16T10:14:37.388Z,19.18
2017-10-16T10:15:37.397Z,19.28
2017-10-16T10:16:37.388Z,19.37
2017-10-16T10:17:37.051Z,19.36
2017-10-16T10:18:37.384Z,19.36
2017-10-16T10:19:37.377Z,19.44
2017-10-16T10:20:37.373Z,19.4
2017-10-16T10:21:37.384Z,19.47
2017-10-16T10:22:37.396Z,19.48
2017-10-16T10:23:37.367Z,19.55
2017-10-16T10:24:37.363Z,19.5
2017-10-16T10:25:37.355Z,19.5
2017-10-16T10:26:37.026Z,19.56
2017-10-16T10:27:37.348Z,19.66
2017-10-16T10:28:37.347Z,19.68
2017-10-16T10:29:37.369Z,19.73
2017-10-16T10:30:37.010Z,19.74
2017-10-16T10:31:37.007Z,19.76
2017-10-16T10:32:37.003Z,19.88
2017-10-16T10:33:37.332Z,19.94
2017-10-16T10:34:37.325Z,20.01
2017-10-16T10:35:37.329Z,19.88
2017-10-16T10:36:36.660Z,19.92
2017-10-16T10:37:37.315Z,20.03
2017-10-16T10:38:37.333Z,20.03
2017-10-16T10:39:38.116Z,20.05
2017-10-16T10:40:37.310Z,20.1
2017-10-16T10:41:37.326Z,20.1
2017-10-16T10:42:37.306Z,20.08
2017-10-16T10:43:37.303Z,20.18
2017-10-16T10:44:37.554Z,20.21
2017-10-16T10:45:37.295Z,20.32
2017-10-16T10:46:37.295Z,20.28
2017-10-16T10:47:36.958Z,20.32
2017-10-16T10:48:36.952Z,20.32
2017-10-16T10:49:37.286Z,20.39
2017-10-16T10:50:37.286Z,20.38
2017-10-16T10:51:37.283Z,20.38
2017-10-16T10:52:37.281Z,20.43
2017-10-16T10:53:36.956Z,20.51
2017-10-16T10:54:37.280Z,20.57
2017-10-16T10:55:37.275Z,20.54
2017-10-16T10:56:36.933Z,20.57
2017-10-16T10:57:37.271Z,20.61
2017-10-16T10:58:36.969Z,20.64
2017-10-16T10:59:37.251Z,20.64
2017-10-16T11:00:37.254Z,20.76
2017-10-16T11:01:36.918Z,20.69
2017-10-16T11:02:37.255Z,20.74
2017-10-16T11:03:37.244Z,20.76
2017-10-16T11:04:36.912Z,20.85
2017-10-16T11:05:37.250Z,20.85
2017-10-16T11:06:37.240Z,20.79
2017-10-16T11:07:36.907Z,20.88
2017-10-16T11:08:37.235Z,20.99
2017-10-16T11:09:37.227Z,20.99
2017-10-16T11:10:37.236Z,20.97
2017-10-16T11:11:37.229Z,21.01
2017-10-16T11:12:36.903Z,21.01
2017-10-16T11:13:37.231Z,21.07
2017-10-16T11:14:37.230Z,21.07
2017-10-16T11:15:37.219Z,21.09
2017-10-16T11:16:37.217Z,21.06
2017-10-16T11:17:37.229Z,21.07
2017-10-16T11:18:37.215Z,21.1
2017-10-16T11:19:37.225Z,21.14
2017-10-16T11:20:36.878Z,21.16
2017-10-16T11:21:36.872Z,21.16
2017-10-16T11:22:37.203Z,21.16
2017-10-16T11:23:37.194Z,21.16
2017-10-16T11:24:37.209Z,21.14
2017-10-16T11:25:37.205Z,21.12
2017-10-16T11:26:37.196Z,21.22
2017-10-16T11:27:37.188Z,21.29
2017-10-16T11:28:37.187Z,21.25
2017-10-16T11:29:37.390Z,21.34
2017-10-16T11:30:37.185Z,21.31
2017-10-16T11:31:37.186Z,21.31
2017-10-16T11:32:37.379Z,21.42
2017-10-16T11:33:37.177Z,21.4
2017-10-16T11:34:36.844Z,21.44
2017-10-16T11:35:36.841Z,21.5
2017-10-16T11:36:37.174Z,21.5
2017-10-16T11:37:36.836Z,21.54
2017-10-16T11:38:36.842Z,21.54
2017-10-16T11:39:36.835Z,21.58
2017-10-16T11:40:37.163Z,21.58
2017-10-16T11:41:36.831Z,21.62
2017-10-16T11:42:37.159Z,21.62
2017-10-16T11:43:37.173Z,21.65
2017-10-16T11:44:37.154Z,21.62
2017-10-16T11:45:37.150Z,21.67
2017-10-16T11:46:36.822Z,21.72
2017-10-16T11:47:37.152Z,21.77
2017-10-16T11:48:37.175Z,21.75
2017-10-16T11:49:37.349Z,21.71
2017-10-16T11:50:37.519Z,21.79
2017-10-16T11:51:36.807Z,21.79
2017-10-16T11:52:37.345Z,21.79
2017-10-16T11:53:37.039Z,21.82
2017-10-16T11:54:37.140Z,21.86
2017-10-16T11:55:37.334Z,21.83
2017-10-16T11:56:37.136Z,21.91
2017-10-16T11:57:36.796Z,21.82
2017-10-16T11:58:37.128Z,21.8
2017-10-16T11:59:37.136Z,21.82
2017-10-16T12:00:37.126Z,21.84
2017-10-16T12:01:37.351Z,21.92
2017-10-16T12:02:37.134Z,21.92
2017-10-16T12:03:36.788Z,21.88
2017-10-16T12:04:36.786Z,21.94
2017-10-16T12:05:37.119Z,21.96
2017-10-16T12:06:37.118Z,22.05
2017-10-16T12:07:37.080Z,21.98
2017-10-16T12:08:37.108Z,22.06
2017-10-16T12:09:37.112Z,22.05
2017-10-16T12:10:36.776Z,22
2017-10-16T12:11:37.109Z,22
2017-10-16T12:12:37.305Z,22
2017-10-16T12:13:37.323Z,22.14
2017-10-16T12:14:37.105Z,22.15
2017-10-16T12:15:37.002Z,22.06
2017-10-16T12:16:36.766Z,22.12
2017-10-16T12:17:37.097Z,22.21
2017-10-16T12:18:36.765Z,22.18
2017-10-16T12:19:37.093Z,22.12
2017-10-16T12:20:37.092Z,22.25
2017-10-16T12:21:36.760Z,22.2
2017-10-16T12:22:37.314Z,22.17
2017-10-16T12:23:37.457Z,22.2
2017-10-16T12:24:36.754Z,22.18
2017-10-16T12:25:36.750Z,22.17
2017-10-16T12:26:36.748Z,22.18
2017-10-16T12:27:36.417Z,22.22
2017-10-16T12:28:36.750Z,22.2
2017-10-16T12:29:36.747Z,22.15
2017-10-16T12:30:36.410Z,22.17
2017-10-16T12:31:36.740Z,22.2
2017-10-16T12:32:37.081Z,22.06
2017-10-16T12:33:37.071Z,22.2
2017-10-16T12:34:36.739Z,22.21
2017-10-16T12:35:37.069Z,22.21
2017-10-16T12:36:37.069Z,22.22
2017-10-16T12:37:37.066Z,22.21
2017-10-16T12:38:37.066Z,22.21
2017-10-16T12:39:37.072Z,22.21
2017-10-16T12:40:36.736Z,22.24
2017-10-16T12:41:37.063Z,22.25
2017-10-16T12:42:37.058Z,22.27
2017-10-16T12:43:37.057Z,22.2
2017-10-16T12:44:37.056Z,22.35
2017-10-16T12:45:37.053Z,22.25
2017-10-16T12:46:36.720Z,22.22
2017-10-16T12:47:37.056Z,22.24
2017-10-16T12:48:37.052Z,22.37
2017-10-16T12:49:37.049Z,22.35
2017-10-16T12:50:37.052Z,22.39
2017-10-16T12:51:37.048Z,22.36
2017-10-16T12:52:37.073Z,22.37
2017-10-16T12:53:36.708Z,22.35
2017-10-16T12:54:36.710Z,22.3
2017-10-16T12:55:37.042Z,22.37